sensor_id;sensor_type;location;lat;lon;timestamp;P1;durP1;ratioP1;P2;durP2;ratioP2
64075;SDS011;50327;51.328;12.324;2023-05-10T00:01:20;8.95;;;3.05;;
64075;SDS011;50327;51.328;12.324;2023-05-10T00:03:45;5.03;;;2.53;;
64075;SDS011;50327;51.328;12.324;2023-05-10T00:06:11;6.82;;;3.00;;
64075;SDS011;50327;51.328;12.324;2023-05-10T00:08:36;6.60;;;2.55;;
64075;SDS011;50327;51.328;12.324;2023-05-10T00:11:01;10.18;;;2.72;;
64075;SDS011;50327;51.328;12.324;2023-05-10T00:13:26;6.78;;;3.38;;
64075;SDS011;50327;51.328;12.324;2023-05-10T00:15:51;5.13;;;2.83;;
64075;SDS011;50327;51.328;12.324;2023-05-10T00:18:17;10.63;;;2.92;;
64075;SDS011;50327;51.328;12.324;2023-05-10T00:20:42;8.40;;;2.80;;
64075;SDS011;50327;51.328;12.324;2023-05-10T00:23:07;5.82;;;3.22;;
64075;SDS011;50327;51.328;12.324;2023-05-10T00:25:32;8.75;;;3.35;;
64075;SDS011;50327;51.328;12.324;2023-05-10T00:27:58;6.60;;;3.13;;
64075;SDS011;50327;51.328;12.324;2023-05-10T00:30:23;8.00;;;3.30;;
64075;SDS011;50327;51.328;12.324;2023-05-10T00:32:48;6.03;;;2.92;;
64075;SDS011;50327;51.328;12.324;2023-05-10T00:35:14;6.53;;;2.92;;
64075;SDS011;50327;51.328;12.324;2023-05-10T00:37:40;7.95;;;3.35;;
64075;SDS011;50327;51.328;12.324;2023-05-10T00:40:05;7.18;;;2.92;;
64075;SDS011;50327;51.328;12.324;2023-05-10T00:42:31;5.68;;;3.03;;
64075;SDS011;50327;51.328;12.324;2023-05-10T00:44:56;8.23;;;3.08;;
64075;SDS011;50327;51.328;12.324;2023-05-10T00:47:22;5.45;;;3.28;;
64075;SDS011;50327;51.328;12.324;2023-05-10T00:49:47;8.52;;;3.45;;
64075;SDS011;50327;51.328;12.324;2023-05-10T00:52:12;6.38;;;3.08;;
64075;SDS011;50327;51.328;12.324;2023-05-10T00:54:38;5.03;;;2.80;;
64075;SDS011;50327;51.328;12.324;2023-05-10T00:57:03;14.82;;;3.50;;
64075;SDS011;50327;51.328;12.324;2023-05-10T00:59:29;5.75;;;3.45;;
64075;SDS011;50327;51.328;12.324;2023-05-10T01:01:54;6.07;;;3.20;;
64075;SDS011;50327;51.328;12.324;2023-05-10T01:04:19;6.22;;;2.85;;
64075;SDS011;50327;51.328;12.324;2023-05-10T01:06:50;5.75;;;2.72;;
64075;SDS011;50327;51.328;12.324;2023-05-10T01:09:15;5.75;;;3.35;;
64075;SDS011;50327;51.328;12.324;2023-05-10T01:11:40;8.13;;;3.15;;
64075;SDS011;50327;51.328;12.324;2023-05-10T01:14:06;9.93;;;3.75;;
64075;SDS011;50327;51.328;12.324;2023-05-10T01:16:32;9.45;;;3.17;;
64075;SDS011;50327;51.328;12.324;2023-05-10T01:18:58;9.05;;;3.00;;
64075;SDS011;50327;51.328;12.324;2023-05-10T01:21:38;11.73;;;3.17;;
64075;SDS011;50327;51.328;12.324;2023-05-10T01:24:09;7.55;;;3.20;;
64075;SDS011;50327;51.328;12.324;2023-05-10T01:34:35;10.32;;;2.80;;
64075;SDS011;50327;51.328;12.324;2023-05-10T01:39:58;6.50;;;2.83;;
64075;SDS011;50327;51.328;12.324;2023-05-10T01:42:29;5.75;;;2.63;;
64075;SDS011;50327;51.328;12.324;2023-05-10T01:45:00;11.32;;;3.35;;
64075;SDS011;50327;51.328;12.324;2023-05-10T01:49:53;6.22;;;2.97;;
64075;SDS011;50327;51.328;12.324;2023-05-10T01:52:19;6.72;;;3.15;;
64075;SDS011;50327;51.328;12.324;2023-05-10T01:54:50;8.57;;;2.88;;
64075;SDS011;50327;51.328;12.324;2023-05-10T01:57:18;6.70;;;2.90;;
64075;SDS011;50327;51.328;12.324;2023-05-10T01:59:45;8.00;;;3.40;;
64075;SDS011;50327;51.328;12.324;2023-05-10T02:02:12;39.13;;;4.28;;
64075;SDS011;50327;51.328;12.324;2023-05-10T02:04:39;7.95;;;3.22;;
64075;SDS011;50327;51.328;12.324;2023-05-10T02:07:05;9.52;;;2.95;;
64075;SDS011;50327;51.328;12.324;2023-05-10T02:09:31;5.13;;;2.90;;
64075;SDS011;50327;51.328;12.324;2023-05-10T02:11:57;9.38;;;2.70;;
64075;SDS011;50327;51.328;12.324;2023-05-10T02:14:24;8.77;;;3.13;;
64075;SDS011;50327;51.328;12.324;2023-05-10T02:16:50;5.22;;;2.75;;
64075;SDS011;50327;51.328;12.324;2023-05-10T02:19:16;6.55;;;3.08;;
64075;SDS011;50327;51.328;12.324;2023-05-10T02:21:42;7.25;;;3.10;;
64075;SDS011;50327;51.328;12.324;2023-05-10T02:24:08;9.05;;;2.90;;
64075;SDS011;50327;51.328;12.324;2023-05-10T02:26:34;6.68;;;2.97;;
64075;SDS011;50327;51.328;12.324;2023-05-10T02:29:00;5.65;;;3.00;;
64075;SDS011;50327;51.328;12.324;2023-05-10T02:31:28;7.60;;;2.90;;
64075;SDS011;50327;51.328;12.324;2023-05-10T02:33:54;12.15;;;3.45;;
64075;SDS011;50327;51.328;12.324;2023-05-10T02:36:20;8.98;;;3.15;;
64075;SDS011;50327;51.328;12.324;2023-05-10T02:38:46;7.38;;;3.42;;
64075;SDS011;50327;51.328;12.324;2023-05-10T02:41:11;6.63;;;3.30;;
64075;SDS011;50327;51.328;12.324;2023-05-10T02:43:37;8.15;;;3.28;;
64075;SDS011;50327;51.328;12.324;2023-05-10T02:46:03;9.82;;;3.30;;
64075;SDS011;50327;51.328;12.324;2023-05-10T02:48:28;16.83;;;3.33;;
64075;SDS011;50327;51.328;12.324;2023-05-10T02:50:54;10.70;;;5.85;;
64075;SDS011;50327;51.328;12.324;2023-05-10T02:53:22;8.52;;;3.42;;
64075;SDS011;50327;51.328;12.324;2023-05-10T02:55:49;5.65;;;3.03;;
64075;SDS011;50327;51.328;12.324;2023-05-10T02:58:15;7.95;;;3.35;;
64075;SDS011;50327;51.328;12.324;2023-05-10T03:00:41;5.30;;;3.05;;
64075;SDS011;50327;51.328;12.324;2023-05-10T03:03:06;5.63;;;2.85;;
64075;SDS011;50327;51.328;12.324;2023-05-10T03:05:31;7.38;;;2.65;;
64075;SDS011;50327;51.328;12.324;2023-05-10T03:07:58;6.55;;;3.35;;
64075;SDS011;50327;51.328;12.324;2023-05-10T03:10:27;6.40;;;3.22;;
64075;SDS011;50327;51.328;12.324;2023-05-10T03:18:08;7.40;;;3.20;;
64075;SDS011;50327;51.328;12.324;2023-05-10T03:20:50;11.60;;;3.22;;
64075;SDS011;50327;51.328;12.324;2023-05-10T03:23:21;7.60;;;3.47;;
64075;SDS011;50327;51.328;12.324;2023-05-10T03:25:48;10.40;;;3.65;;
64075;SDS011;50327;51.328;12.324;2023-05-10T03:28:13;6.82;;;3.38;;
64075;SDS011;50327;51.328;12.324;2023-05-10T03:30:40;6.90;;;3.17;;
64075;SDS011;50327;51.328;12.324;2023-05-10T03:33:06;6.63;;;3.30;;
64075;SDS011;50327;51.328;12.324;2023-05-10T03:35:31;5.75;;;2.83;;
64075;SDS011;50327;51.328;12.324;2023-05-10T03:37:57;7.78;;;3.00;;
64075;SDS011;50327;51.328;12.324;2023-05-10T03:40:22;8.20;;;3.10;;
64075;SDS011;50327;51.328;12.324;2023-05-10T03:42:48;8.88;;;3.40;;
64075;SDS011;50327;51.328;12.324;2023-05-10T03:45:13;4.88;;;2.58;;
64075;SDS011;50327;51.328;12.324;2023-05-10T03:47:38;6.10;;;3.00;;
64075;SDS011;50327;51.328;12.324;2023-05-10T03:50:03;5.80;;;2.97;;
64075;SDS011;50327;51.328;12.324;2023-05-10T03:52:29;12.10;;;3.33;;
64075;SDS011;50327;51.328;12.324;2023-05-10T03:54:54;6.13;;;3.00;;
64075;SDS011;50327;51.328;12.324;2023-05-10T03:57:19;6.00;;;3.15;;
64075;SDS011;50327;51.328;12.324;2023-05-10T03:59:45;6.10;;;3.10;;
64075;SDS011;50327;51.328;12.324;2023-05-10T04:02:10;6.00;;;2.80;;
64075;SDS011;50327;51.328;12.324;2023-05-10T04:04:35;6.03;;;2.88;;
64075;SDS011;50327;51.328;12.324;2023-05-10T04:07:00;6.95;;;3.20;;
64075;SDS011;50327;51.328;12.324;2023-05-10T04:09:26;6.22;;;3.05;;
64075;SDS011;50327;51.328;12.324;2023-05-10T04:11:51;6.07;;;3.13;;
64075;SDS011;50327;51.328;12.324;2023-05-10T04:14:16;7.13;;;2.67;;
64075;SDS011;50327;51.328;12.324;2023-05-10T04:16:41;12.05;;;3.30;;
64075;SDS011;50327;51.328;12.324;2023-05-10T04:19:07;8.52;;;4.50;;
64075;SDS011;50327;51.328;12.324;2023-05-10T04:21:32;9.43;;;3.80;;
64075;SDS011;50327;51.328;12.324;2023-05-10T04:23:57;7.30;;;3.20;;
64075;SDS011;50327;51.328;12.324;2023-05-10T04:26:23;10.80;;;2.88;;
64075;SDS011;50327;51.328;12.324;2023-05-10T04:28:50;5.82;;;2.75;;
64075;SDS011;50327;51.328;12.324;2023-05-10T04:31:15;11.73;;;4.28;;
64075;SDS011;50327;51.328;12.324;2023-05-10T04:33:40;8.70;;;3.65;;
64075;SDS011;50327;51.328;12.324;2023-05-10T04:36:05;7.53;;;3.22;;
64075;SDS011;50327;51.328;12.324;2023-05-10T04:38:31;8.48;;;2.90;;
64075;SDS011;50327;51.328;12.324;2023-05-10T04:41:09;6.45;;;3.15;;
64075;SDS011;50327;51.328;12.324;2023-05-10T04:43:34;8.82;;;3.45;;
64075;SDS011;50327;51.328;12.324;2023-05-10T04:45:59;8.68;;;3.80;;
64075;SDS011;50327;51.328;12.324;2023-05-10T04:48:25;5.72;;;3.20;;
64075;SDS011;50327;51.328;12.324;2023-05-10T04:50:50;6.97;;;3.38;;
64075;SDS011;50327;51.328;12.324;2023-05-10T04:53:15;9.25;;;3.25;;
64075;SDS011;50327;51.328;12.324;2023-05-10T04:55:41;5.90;;;2.95;;
64075;SDS011;50327;51.328;12.324;2023-05-10T04:58:06;8.15;;;3.22;;
64075;SDS011;50327;51.328;12.324;2023-05-10T05:00:31;8.27;;;3.33;;
64075;SDS011;50327;51.328;12.324;2023-05-10T05:02:57;10.20;;;3.08;;
64075;SDS011;50327;51.328;12.324;2023-05-10T05:05:23;15.93;;;5.20;;
64075;SDS011;50327;51.328;12.324;2023-05-10T05:07:48;9.52;;;3.55;;
64075;SDS011;50327;51.328;12.324;2023-05-10T05:10:13;8.27;;;3.17;;
64075;SDS011;50327;51.328;12.324;2023-05-10T05:12:38;7.60;;;3.40;;
64075;SDS011;50327;51.328;12.324;2023-05-10T05:15:04;10.52;;;2.90;;
64075;SDS011;50327;51.328;12.324;2023-05-10T05:17:32;11.18;;;3.08;;
64075;SDS011;50327;51.328;12.324;2023-05-10T05:19:57;9.65;;;3.35;;
64075;SDS011;50327;51.328;12.324;2023-05-10T05:22:23;9.32;;;3.53;;
64075;SDS011;50327;51.328;12.324;2023-05-10T05:24:52;6.55;;;2.80;;
64075;SDS011;50327;51.328;12.324;2023-05-10T05:27:17;6.93;;;2.80;;
64075;SDS011;50327;51.328;12.324;2023-05-10T05:29:43;8.18;;;3.13;;
64075;SDS011;50327;51.328;12.324;2023-05-10T05:32:08;5.18;;;2.80;;
64075;SDS011;50327;51.328;12.324;2023-05-10T05:34:33;11.85;;;4.50;;
64075;SDS011;50327;51.328;12.324;2023-05-10T05:36:59;7.28;;;3.00;;
64075;SDS011;50327;51.328;12.324;2023-05-10T05:39:24;9.02;;;2.83;;
64075;SDS011;50327;51.328;12.324;2023-05-10T05:41:49;10.25;;;3.60;;
64075;SDS011;50327;51.328;12.324;2023-05-10T05:44:14;8.10;;;3.20;;
64075;SDS011;50327;51.328;12.324;2023-05-10T05:46:40;9.50;;;3.53;;
64075;SDS011;50327;51.328;12.324;2023-05-10T05:49:05;9.32;;;3.55;;
64075;SDS011;50327;51.328;12.324;2023-05-10T05:51:30;8.82;;;3.30;;
64075;SDS011;50327;51.328;12.324;2023-05-10T05:53:56;8.32;;;3.03;;
64075;SDS011;50327;51.328;12.324;2023-05-10T05:56:21;9.65;;;3.00;;
64075;SDS011;50327;51.328;12.324;2023-05-10T05:58:49;7.10;;;2.93;;
64075;SDS011;50327;51.328;12.324;2023-05-10T06:01:15;9.52;;;3.22;;
64075;SDS011;50327;51.328;12.324;2023-05-10T06:03:40;5.63;;;2.60;;
64075;SDS011;50327;51.328;12.324;2023-05-10T06:06:05;8.55;;;3.10;;
64075;SDS011;50327;51.328;12.324;2023-05-10T06:08:31;12.38;;;3.10;;
64075;SDS011;50327;51.328;12.324;2023-05-10T06:10:56;8.07;;;3.90;;
64075;SDS011;50327;51.328;12.324;2023-05-10T06:13:21;5.88;;;3.00;;
64075;SDS011;50327;51.328;12.324;2023-05-10T06:15:46;13.57;;;3.30;;
64075;SDS011;50327;51.328;12.324;2023-05-10T06:18:12;6.53;;;2.55;;
64075;SDS011;50327;51.328;12.324;2023-05-10T06:20:37;5.93;;;2.70;;
64075;SDS011;50327;51.328;12.324;2023-05-10T06:23:02;5.28;;;2.67;;
64075;SDS011;50327;51.328;12.324;2023-05-10T06:25:28;7.63;;;2.88;;
64075;SDS011;50327;51.328;12.324;2023-05-10T06:27:53;8.35;;;2.42;;
64075;SDS011;50327;51.328;12.324;2023-05-10T06:32:52;6.32;;;2.90;;
64075;SDS011;50327;51.328;12.324;2023-05-10T06:35:17;6.85;;;2.88;;
64075;SDS011;50327;51.328;12.324;2023-05-10T06:37:42;12.60;;;2.75;;
64075;SDS011;50327;51.328;12.324;2023-05-10T06:40:08;6.90;;;3.35;;
64075;SDS011;50327;51.328;12.324;2023-05-10T06:42:34;6.53;;;3.10;;
64075;SDS011;50327;51.328;12.324;2023-05-10T06:44:59;9.57;;;2.85;;
64075;SDS011;50327;51.328;12.324;2023-05-10T06:47:24;5.47;;;2.97;;
64075;SDS011;50327;51.328;12.324;2023-05-10T06:49:49;11.75;;;3.10;;
64075;SDS011;50327;51.328;12.324;2023-05-10T06:52:14;5.82;;;2.85;;
64075;SDS011;50327;51.328;12.324;2023-05-10T06:54:40;8.38;;;2.75;;
64075;SDS011;50327;51.328;12.324;2023-05-10T06:57:05;8.93;;;3.00;;
64075;SDS011;50327;51.328;12.324;2023-05-10T06:59:30;10.15;;;2.90;;
64075;SDS011;50327;51.328;12.324;2023-05-10T07:01:55;5.47;;;2.70;;
64075;SDS011;50327;51.328;12.324;2023-05-10T07:04:21;20.25;;;3.55;;
64075;SDS011;50327;51.328;12.324;2023-05-10T07:06:46;5.82;;;2.65;;
64075;SDS011;50327;51.328;12.324;2023-05-10T07:09:11;7.78;;;3.13;;
64075;SDS011;50327;51.328;12.324;2023-05-10T07:11:36;7.18;;;3.10;;
64075;SDS011;50327;51.328;12.324;2023-05-10T07:14:02;15.13;;;2.85;;
64075;SDS011;50327;51.328;12.324;2023-05-10T07:16:27;8.68;;;2.80;;
64075;SDS011;50327;51.328;12.324;2023-05-10T07:18:53;8.25;;;3.03;;
64075;SDS011;50327;51.328;12.324;2023-05-10T07:21:18;8.00;;;3.22;;
64075;SDS011;50327;51.328;12.324;2023-05-10T07:23:44;11.23;;;3.25;;
64075;SDS011;50327;51.328;12.324;2023-05-10T07:26:09;9.50;;;2.85;;
64075;SDS011;50327;51.328;12.324;2023-05-10T07:28:35;6.50;;;2.85;;
64075;SDS011;50327;51.328;12.324;2023-05-10T07:31:02;5.10;;;2.90;;
64075;SDS011;50327;51.328;12.324;2023-05-10T07:33:27;7.18;;;3.10;;
64075;SDS011;50327;51.328;12.324;2023-05-10T07:35:52;8.32;;;3.00;;
64075;SDS011;50327;51.328;12.324;2023-05-10T07:38:18;10.98;;;2.92;;
64075;SDS011;50327;51.328;12.324;2023-05-10T07:40:43;7.70;;;2.78;;
64075;SDS011;50327;51.328;12.324;2023-05-10T07:43:08;11.27;;;3.67;;
64075;SDS011;50327;51.328;12.324;2023-05-10T07:45:34;10.25;;;3.40;;
64075;SDS011;50327;51.328;12.324;2023-05-10T07:47:59;8.20;;;2.90;;
64075;SDS011;50327;51.328;12.324;2023-05-10T07:50:24;13.40;;;3.33;;
64075;SDS011;50327;51.328;12.324;2023-05-10T07:52:50;9.65;;;3.35;;
64075;SDS011;50327;51.328;12.324;2023-05-10T07:55:15;5.72;;;2.95;;
64075;SDS011;50327;51.328;12.324;2023-05-10T07:57:41;10.65;;;3.08;;
64075;SDS011;50327;51.328;12.324;2023-05-10T08:00:06;9.57;;;3.15;;
64075;SDS011;50327;51.328;12.324;2023-05-10T08:02:32;4.93;;;2.65;;
64075;SDS011;50327;51.328;12.324;2023-05-10T08:04:58;5.53;;;2.60;;
64075;SDS011;50327;51.328;12.324;2023-05-10T08:07:24;9.13;;;3.38;;
64075;SDS011;50327;51.328;12.324;2023-05-10T08:09:49;5.78;;;2.85;;
64075;SDS011;50327;51.328;12.324;2023-05-10T08:12:14;8.23;;;2.78;;
64075;SDS011;50327;51.328;12.324;2023-05-10T08:14:40;10.13;;;4.18;;
64075;SDS011;50327;51.328;12.324;2023-05-10T08:17:05;11.63;;;3.30;;
64075;SDS011;50327;51.328;12.324;2023-05-10T08:19:31;9.18;;;3.00;;
64075;SDS011;50327;51.328;12.324;2023-05-10T08:21:56;10.65;;;3.28;;
64075;SDS011;50327;51.328;12.324;2023-05-10T08:24:22;10.30;;;3.08;;
64075;SDS011;50327;51.328;12.324;2023-05-10T08:26:47;10.60;;;3.22;;
64075;SDS011;50327;51.328;12.324;2023-05-10T08:29:13;6.20;;;2.83;;
64075;SDS011;50327;51.328;12.324;2023-05-10T08:31:38;9.80;;;3.30;;
64075;SDS011;50327;51.328;12.324;2023-05-10T08:34:03;5.93;;;3.17;;
64075;SDS011;50327;51.328;12.324;2023-05-10T08:36:28;8.88;;;3.42;;
64075;SDS011;50327;51.328;12.324;2023-05-10T08:38:54;10.70;;;3.80;;
64075;SDS011;50327;51.328;12.324;2023-05-10T08:41:19;6.78;;;3.08;;
64075;SDS011;50327;51.328;12.324;2023-05-10T08:43:46;9.30;;;3.38;;
64075;SDS011;50327;51.328;12.324;2023-05-10T08:46:12;8.55;;;3.53;;
64075;SDS011;50327;51.328;12.324;2023-05-10T08:48:38;6.93;;;3.40;;
64075;SDS011;50327;51.328;12.324;2023-05-10T08:51:03;6.03;;;2.88;;
64075;SDS011;50327;51.328;12.324;2023-05-10T08:53:29;8.32;;;4.15;;
64075;SDS011;50327;51.328;12.324;2023-05-10T08:55:55;9.85;;;3.97;;
64075;SDS011;50327;51.328;12.324;2023-05-10T08:58:20;8.40;;;4.20;;
64075;SDS011;50327;51.328;12.324;2023-05-10T09:00:46;13.32;;;3.58;;
64075;SDS011;50327;51.328;12.324;2023-05-10T09:03:11;8.98;;;4.65;;
64075;SDS011;50327;51.328;12.324;2023-05-10T09:05:37;6.90;;;4.00;;
64075;SDS011;50327;51.328;12.324;2023-05-10T09:08:02;6.50;;;3.53;;
64075;SDS011;50327;51.328;12.324;2023-05-10T09:10:28;10.35;;;4.28;;
64075;SDS011;50327;51.328;12.324;2023-05-10T09:12:57;6.60;;;3.78;;
64075;SDS011;50327;51.328;12.324;2023-05-10T09:15:22;8.15;;;4.20;;
64075;SDS011;50327;51.328;12.324;2023-05-10T09:17:48;8.45;;;3.90;;
64075;SDS011;50327;51.328;12.324;2023-05-10T09:20:14;10.95;;;4.55;;
64075;SDS011;50327;51.328;12.324;2023-05-10T09:22:39;9.88;;;4.40;;
64075;SDS011;50327;51.328;12.324;2023-05-10T09:25:06;9.05;;;4.93;;
64075;SDS011;50327;51.328;12.324;2023-05-10T09:27:32;8.90;;;4.80;;
64075;SDS011;50327;51.328;12.324;2023-05-10T09:29:57;9.13;;;4.28;;
64075;SDS011;50327;51.328;12.324;2023-05-10T09:32:35;12.07;;;4.60;;
64075;SDS011;50327;51.328;12.324;2023-05-10T09:35:05;8.50;;;3.92;;
64075;SDS011;50327;51.328;12.324;2023-05-10T09:37:31;10.90;;;4.65;;
64075;SDS011;50327;51.328;12.324;2023-05-10T09:39:56;8.18;;;4.32;;
64075;SDS011;50327;51.328;12.324;2023-05-10T09:42:21;12.82;;;4.93;;
64075;SDS011;50327;51.328;12.324;2023-05-10T09:44:47;13.70;;;5.13;;
64075;SDS011;50327;51.328;12.324;2023-05-10T09:47:16;10.63;;;4.50;;
64075;SDS011;50327;51.328;12.324;2023-05-10T09:49:42;11.32;;;4.82;;
64075;SDS011;50327;51.328;12.324;2023-05-10T09:52:07;13.80;;;4.88;;
64075;SDS011;50327;51.328;12.324;2023-05-10T09:54:33;11.68;;;4.40;;
64075;SDS011;50327;51.328;12.324;2023-05-10T09:56:58;9.98;;;4.55;;
64075;SDS011;50327;51.328;12.324;2023-05-10T09:59:25;8.85;;;4.22;;
64075;SDS011;50327;51.328;12.324;2023-05-10T10:01:50;8.63;;;4.40;;
64075;SDS011;50327;51.328;12.324;2023-05-10T10:04:16;9.45;;;5.25;;
64075;SDS011;50327;51.328;12.324;2023-05-10T10:06:42;10.82;;;5.57;;
64075;SDS011;50327;51.328;12.324;2023-05-10T10:09:07;7.25;;;4.55;;
64075;SDS011;50327;51.328;12.324;2023-05-10T10:11:34;7.63;;;4.07;;
64075;SDS011;50327;51.328;12.324;2023-05-10T10:13:59;8.32;;;4.55;;
64075;SDS011;50327;51.328;12.324;2023-05-10T10:16:25;12.18;;;5.50;;
64075;SDS011;50327;51.328;12.324;2023-05-10T10:18:51;7.80;;;4.43;;
64075;SDS011;50327;51.328;12.324;2023-05-10T10:21:17;8.40;;;4.20;;
64075;SDS011;50327;51.328;12.324;2023-05-10T10:23:44;8.60;;;4.38;;
64075;SDS011;50327;51.328;12.324;2023-05-10T10:26:10;7.30;;;4.18;;
64075;SDS011;50327;51.328;12.324;2023-05-10T10:29:20;8.18;;;4.70;;
64075;SDS011;50327;51.328;12.324;2023-05-10T10:36:19;8.48;;;5.05;;
64075;SDS011;50327;51.328;12.324;2023-05-10T10:46:57;10.63;;;4.78;;
64075;SDS011;50327;51.328;12.324;2023-05-10T10:49:22;8.40;;;4.68;;
64075;SDS011;50327;51.328;12.324;2023-05-10T10:54:32;10.25;;;5.45;;
64075;SDS011;50327;51.328;12.324;2023-05-10T10:57:09;10.63;;;4.70;;
64075;SDS011;50327;51.328;12.324;2023-05-10T10:59:35;6.95;;;4.57;;
64075;SDS011;50327;51.328;12.324;2023-05-10T11:02:00;14.27;;;5.47;;
64075;SDS011;50327;51.328;12.324;2023-05-10T11:04:28;12.10;;;5.38;;
64075;SDS011;50327;51.328;12.324;2023-05-10T11:06:53;11.10;;;5.07;;
64075;SDS011;50327;51.328;12.324;2023-05-10T11:09:39;9.85;;;5.35;;
64075;SDS011;50327;51.328;12.324;2023-05-10T11:12:07;8.23;;;5.43;;
64075;SDS011;50327;51.328;12.324;2023-05-10T11:14:33;8.65;;;4.57;;
64075;SDS011;50327;51.328;12.324;2023-05-10T11:16:58;11.48;;;5.72;;
64075;SDS011;50327;51.328;12.324;2023-05-10T11:19:23;12.23;;;5.78;;
64075;SDS011;50327;51.328;12.324;2023-05-10T11:22:13;11.85;;;6.20;;
64075;SDS011;50327;51.328;12.324;2023-05-10T11:24:38;13.90;;;6.28;;
64075;SDS011;50327;51.328;12.324;2023-05-10T11:27:03;10.85;;;5.95;;
64075;SDS011;50327;51.328;12.324;2023-05-10T11:29:28;11.10;;;5.55;;
64075;SDS011;50327;51.328;12.324;2023-05-10T11:31:56;11.88;;;6.15;;
64075;SDS011;50327;51.328;12.324;2023-05-10T11:34:25;8.38;;;5.30;;
64075;SDS011;50327;51.328;12.324;2023-05-10T11:36:52;11.98;;;6.35;;
64075;SDS011;50327;51.328;12.324;2023-05-10T11:39:18;11.85;;;5.60;;
64075;SDS011;50327;51.328;12.324;2023-05-10T11:41:44;13.15;;;6.25;;
64075;SDS011;50327;51.328;12.324;2023-05-10T11:44:12;15.60;;;6.45;;
64075;SDS011;50327;51.328;12.324;2023-05-10T11:46:37;10.70;;;5.88;;
64075;SDS011;50327;51.328;12.324;2023-05-10T11:49:02;10.90;;;5.40;;
64075;SDS011;50327;51.328;12.324;2023-05-10T11:51:33;9.98;;;5.38;;
64075;SDS011;50327;51.328;12.324;2023-05-10T11:53:59;9.05;;;5.05;;
64075;SDS011;50327;51.328;12.324;2023-05-10T11:56:24;14.30;;;5.03;;
64075;SDS011;50327;51.328;12.324;2023-05-10T11:58:55;18.63;;;6.82;;
64075;SDS011;50327;51.328;12.324;2023-05-10T12:01:20;12.48;;;7.38;;
64075;SDS011;50327;51.328;12.324;2023-05-10T12:03:46;15.13;;;5.82;;
64075;SDS011;50327;51.328;12.324;2023-05-10T12:06:11;14.18;;;6.45;;
64075;SDS011;50327;51.328;12.324;2023-05-10T12:08:37;8.77;;;5.38;;
64075;SDS011;50327;51.328;12.324;2023-05-10T12:11:09;9.95;;;5.25;;
64075;SDS011;50327;51.328;12.324;2023-05-10T12:13:37;7.78;;;4.95;;
64075;SDS011;50327;51.328;12.324;2023-05-10T12:16:13;8.27;;;5.28;;
64075;SDS011;50327;51.328;12.324;2023-05-10T12:18:40;10.88;;;5.97;;
64075;SDS011;50327;51.328;12.324;2023-05-10T12:21:05;10.13;;;5.40;;
64075;SDS011;50327;51.328;12.324;2023-05-10T12:23:30;9.88;;;6.40;;
64075;SDS011;50327;51.328;12.324;2023-05-10T12:26:01;12.20;;;6.03;;
64075;SDS011;50327;51.328;12.324;2023-05-10T12:28:29;19.90;;;6.72;;
64075;SDS011;50327;51.328;12.324;2023-05-10T12:30:54;11.85;;;6.68;;
64075;SDS011;50327;51.328;12.324;2023-05-10T12:33:22;11.93;;;6.00;;
64075;SDS011;50327;51.328;12.324;2023-05-10T12:35:48;10.75;;;5.85;;
64075;SDS011;50327;51.328;12.324;2023-05-10T12:38:34;13.52;;;6.30;;
64075;SDS011;50327;51.328;12.324;2023-05-10T12:40:59;9.38;;;5.20;;
64075;SDS011;50327;51.328;12.324;2023-05-10T12:43:25;14.88;;;6.85;;
64075;SDS011;50327;51.328;12.324;2023-05-10T12:45:51;11.38;;;5.97;;
64075;SDS011;50327;51.328;12.324;2023-05-10T12:48:16;13.05;;;5.25;;
64075;SDS011;50327;51.328;12.324;2023-05-10T12:50:41;11.85;;;5.03;;
64075;SDS011;50327;51.328;12.324;2023-05-10T12:53:06;12.68;;;5.63;;
64075;SDS011;50327;51.328;12.324;2023-05-10T12:55:31;9.45;;;5.20;;
64075;SDS011;50327;51.328;12.324;2023-05-10T12:57:57;9.43;;;4.90;;
64075;SDS011;50327;51.328;12.324;2023-05-10T13:00:22;12.38;;;5.65;;
64075;SDS011;50327;51.328;12.324;2023-05-10T13:02:47;12.55;;;5.28;;
64075;SDS011;50327;51.328;12.324;2023-05-10T13:05:12;13.05;;;4.68;;
64075;SDS011;50327;51.328;12.324;2023-05-10T13:07:38;7.63;;;3.90;;
64075;SDS011;50327;51.328;12.324;2023-05-10T13:10:03;12.82;;;5.10;;
64075;SDS011;50327;51.328;12.324;2023-05-10T13:12:29;8.65;;;4.65;;
64075;SDS011;50327;51.328;12.324;2023-05-10T13:14:54;7.20;;;4.75;;
64075;SDS011;50327;51.328;12.324;2023-05-10T13:17:19;8.73;;;4.30;;
64075;SDS011;50327;51.328;12.324;2023-05-10T13:19:44;8.73;;;4.55;;
64075;SDS011;50327;51.328;12.324;2023-05-10T13:22:10;10.60;;;4.32;;
64075;SDS011;50327;51.328;12.324;2023-05-10T13:24:35;8.63;;;4.70;;
64075;SDS011;50327;51.328;12.324;2023-05-10T13:27:00;10.02;;;4.25;;
64075;SDS011;50327;51.328;12.324;2023-05-10T13:29:26;14.00;;;5.43;;
64075;SDS011;50327;51.328;12.324;2023-05-10T13:31:51;8.35;;;4.65;;
64075;SDS011;50327;51.328;12.324;2023-05-10T13:34:16;7.82;;;3.83;;
64075;SDS011;50327;51.328;12.324;2023-05-10T13:36:45;7.13;;;4.32;;
64075;SDS011;50327;51.328;12.324;2023-05-10T13:39:10;8.35;;;4.78;;
64075;SDS011;50327;51.328;12.324;2023-05-10T13:41:35;9.73;;;4.68;;
64075;SDS011;50327;51.328;12.324;2023-05-10T13:44:01;10.18;;;4.72;;
64075;SDS011;50327;51.328;12.324;2023-05-10T13:46:27;8.23;;;4.60;;
64075;SDS011;50327;51.328;12.324;2023-05-10T13:48:52;6.57;;;3.88;;
64075;SDS011;50327;51.328;12.324;2023-05-10T13:51:17;6.63;;;2.33;;
64075;SDS011;50327;51.328;12.324;2023-05-10T13:53:42;2.47;;;1.50;;
64075;SDS011;50327;51.328;12.324;2023-05-10T13:56:08;2.03;;;1.23;;
64075;SDS011;50327;51.328;12.324;2023-05-10T13:58:33;3.55;;;1.30;;
64075;SDS011;50327;51.328;12.324;2023-05-10T14:00:58;4.13;;;1.65;;
64075;SDS011;50327;51.328;12.324;2023-05-10T14:03:23;4.85;;;1.20;;
64075;SDS011;50327;51.328;12.324;2023-05-10T14:05:49;4.68;;;1.60;;
64075;SDS011;50327;51.328;12.324;2023-05-10T14:08:14;2.65;;;1.20;;
64075;SDS011;50327;51.328;12.324;2023-05-10T14:10:40;2.35;;;0.90;;
64075;SDS011;50327;51.328;12.324;2023-05-10T14:13:05;2.00;;;1.13;;
64075;SDS011;50327;51.328;12.324;2023-05-10T14:15:31;6.00;;;1.40;;
64075;SDS011;50327;51.328;12.324;2023-05-10T14:17:56;1.90;;;1.20;;
64075;SDS011;50327;51.328;12.324;2023-05-10T14:20:21;3.92;;;1.98;;
64075;SDS011;50327;51.328;12.324;2023-05-10T14:22:46;8.77;;;1.70;;
64075;SDS011;50327;51.328;12.324;2023-05-10T14:25:12;4.13;;;1.73;;
64075;SDS011;50327;51.328;12.324;2023-05-10T14:27:37;7.80;;;2.00;;
64075;SDS011;50327;51.328;12.324;2023-05-10T14:30:02;4.13;;;1.77;;
64075;SDS011;50327;51.328;12.324;2023-05-10T14:32:28;8.60;;;2.70;;
64075;SDS011;50327;51.328;12.324;2023-05-10T14:34:53;4.60;;;2.40;;
64075;SDS011;50327;51.328;12.324;2023-05-10T14:37:18;7.53;;;2.47;;
64075;SDS011;50327;51.328;12.324;2023-05-10T14:39:43;6.18;;;2.55;;
64075;SDS011;50327;51.328;12.324;2023-05-10T14:42:09;6.40;;;2.40;;
64075;SDS011;50327;51.328;12.324;2023-05-10T14:44:34;4.57;;;2.65;;
64075;SDS011;50327;51.328;12.324;2023-05-10T14:46:59;4.88;;;2.55;;
64075;SDS011;50327;51.328;12.324;2023-05-10T14:49:24;4.50;;;2.22;;
64075;SDS011;50327;51.328;12.324;2023-05-10T14:51:51;2.75;;;1.50;;
64075;SDS011;50327;51.328;12.324;2023-05-10T14:54:16;1.80;;;0.90;;
64075;SDS011;50327;51.328;12.324;2023-05-10T14:56:41;1.77;;;1.13;;
64075;SDS011;50327;51.328;12.324;2023-05-10T14:59:07;4.30;;;1.17;;
64075;SDS011;50327;51.328;12.324;2023-05-10T15:01:32;3.35;;;1.63;;